sensor_id;sensor_type;location;lat;lon;timestamp;pressure;altitude;pressure_sealevel;temperature;humidity
4326;BME280;58429;49.826;10.880;2023-03-01T00:00:46;99671;;;-0.06;63.5
4326;BME280;58429;49.826;10.880;2023-03-01T00:01:46;99666;;;-0.07;63.55
4326;BME280;58429;49.826;10.880;2023-03-01T00:02:46;99665;;;-0.11;63.46
4326;BME280;58429;49.826;10.880;2023-03-01T00:03:46;99660;;;-0.09;63.51
4326;BME280;58429;49.826;10.880;2023-03-01T00:04:46;99668;;;-0.07;63.82
4326;BME280;58429;49.826;10.880;2023-03-01T00:05:46;99656;;;-0.09;63.96
4326;BME280;58429;49.826;10.880;2023-03-01T00:06:46;99662;;;-0.09;63.77
4326;BME280;58429;49.826;10.880;2023-03-01T00:07:46;99663;;;-0.09;63.64
4326;BME280;58429;49.826;10.880;2023-03-01T00:08:46;99660;;;-0.09;64.01
4326;BME280;58429;49.826;10.880;2023-03-01T00:09:46;99659;;;-0.09;63.93
4326;BME280;58429;49.826;10.880;2023-03-01T00:10:47;99664;;;-0.07;63.82
4326;BME280;58429;49.826;10.880;2023-03-01T00:11:46;99660;;;-0.11;63.67
4326;BME280;58429;49.826;10.880;2023-03-01T00:12:46;99661;;;-0.07;63.64
4326;BME280;58429;49.826;10.880;2023-03-01T00:13:47;99658;;;-0.08;63.66
4326;BME280;58429;49.826;10.880;2023-03-01T00:14:46;99659;;;-0.09;63.68
4326;BME280;58429;49.826;10.880;2023-03-01T00:15:46;99653;;;-0.09;63.64
4326;BME280;58429;49.826;10.880;2023-03-01T00:16:46;99656;;;-0.09;63.69
4326;BME280;58429;49.826;10.880;2023-03-01T00:17:46;99660;;;-0.08;63.84
4326;BME280;58429;49.826;10.880;2023-03-01T00:18:47;99654;;;-0.12;63.75
4326;BME280;58429;49.826;10.880;2023-03-01T00:19:46;99657;;;-0.09;63.63
4326;BME280;58429;49.826;10.880;2023-03-01T00:20:49;99656;;;-0.12;63.61
4326;BME280;58429;49.826;10.880;2023-03-01T00:21:47;99655;;;-0.12;63.72
4326;BME280;58429;49.826;10.880;2023-03-01T00:22:46;99654;;;-0.12;63.73
4326;BME280;58429;49.826;10.880;2023-03-01T00:23:46;99658;;;-0.15;63.78
4326;BME280;58429;49.826;10.880;2023-03-01T00:24:46;99647;;;-0.15;63.82
4326;BME280;58429;49.826;10.880;2023-03-01T00:25:46;99645;;;-0.15;63.82
4326;BME280;58429;49.826;10.880;2023-03-01T00:26:46;99644;;;-0.15;63.87
4326;BME280;58429;49.826;10.880;2023-03-01T00:27:47;99645;;;-0.17;63.92
4326;BME280;58429;49.826;10.880;2023-03-01T00:28:46;99645;;;-0.15;63.89
4326;BME280;58429;49.826;10.880;2023-03-01T00:29:46;99642;;;-0.14;63.9
4326;BME280;58429;49.826;10.880;2023-03-01T00:30:46;99643;;;-0.14;64.09
4326;BME280;58429;49.826;10.880;2023-03-01T00:31:46;99639;;;-0.11;64.09
4326;BME280;58429;49.826;10.880;2023-03-01T00:32:46;99631;;;-0.12;64.08
4326;BME280;58429;49.826;10.880;2023-03-01T00:33:46;99636;;;-0.13;64.02
4326;BME280;58429;49.826;10.880;2023-03-01T00:34:46;99631;;;-0.11;64.07
4326;BME280;58429;49.826;10.880;2023-03-01T00:35:46;99633;;;-0.15;64.1
4326;BME280;58429;49.826;10.880;2023-03-01T00:36:51;99623;;;-0.11;63.92
4326;BME280;58429;49.826;10.880;2023-03-01T00:37:46;99630;;;-0.14;63.9
4326;BME280;58429;49.826;10.880;2023-03-01T00:38:46;99627;;;-0.11;64.01
4326;BME280;58429;49.826;10.880;2023-03-01T00:39:46;99625;;;-0.14;64.28
4326;BME280;58429;49.826;10.880;2023-03-01T00:40:46;99630;;;-0.14;64.07
4326;BME280;58429;49.826;10.880;2023-03-01T00:41:46;99623;;;-0.17;63.9
4326;BME280;58429;49.826;10.880;2023-03-01T00:42:46;99623;;;-0.16;63.89
4326;BME280;58429;49.826;10.880;2023-03-01T00:43:46;99628;;;-0.16;64.02
4326;BME280;58429;49.826;10.880;2023-03-01T00:44:46;99621;;;-0.19;64
4326;BME280;58429;49.826;10.880;2023-03-01T00:45:46;99631;;;-0.19;64.03
4326;BME280;58429;49.826;10.880;2023-03-01T00:46:46;99619;;;-0.19;64.14
4326;BME280;58429;49.826;10.880;2023-03-01T00:47:47;99622;;;-0.22;64.19
4326;BME280;58429;49.826;10.880;2023-03-01T00:48:47;99625;;;-0.22;64.28
4326;BME280;58429;49.826;10.880;2023-03-01T00:49:46;99616;;;-0.22;64.27
4326;BME280;58429;49.826;10.880;2023-03-01T00:50:46;99621;;;-0.22;64.34
4326;BME280;58429;49.826;10.880;2023-03-01T00:51:46;99621;;;-0.23;64.55
4326;BME280;58429;49.826;10.880;2023-03-01T00:52:46;99618;;;-0.24;64.39
4326;BME280;58429;49.826;10.880;2023-03-01T00:53:47;99619;;;-0.26;64.43
4326;BME280;58429;49.826;10.880;2023-03-01T00:54:46;99619;;;-0.3;64.66
4326;BME280;58429;49.826;10.880;2023-03-01T00:55:46;99624;;;-0.32;64.81
4326;BME280;58429;49.826;10.880;2023-03-01T00:56:47;99615;;;-0.36;65.06
4326;BME280;58429;49.826;10.880;2023-03-01T00:57:46;99619;;;-0.41;65.04
4326;BME280;58429;49.826;10.880;2023-03-01T00:58:47;99617;;;-0.44;65.06
4326;BME280;58429;49.826;10.880;2023-03-01T00:59:46;99625;;;-0.41;64.95
4326;BME280;58429;49.826;10.880;2023-03-01T01:00:46;99618;;;-0.4;64.99
4326;BME280;58429;49.826;10.880;2023-03-01T01:01:46;99622;;;-0.41;65.25
4326;BME280;58429;49.826;10.880;2023-03-01T01:02:47;99621;;;-0.38;65.04
4326;BME280;58429;49.826;10.880;2023-03-01T01:03:47;99618;;;-0.4;64.98
4326;BME280;58429;49.826;10.880;2023-03-01T01:04:47;99619;;;-0.42;65.17
4326;BME280;58429;49.826;10.880;2023-03-01T01:05:47;99619;;;-0.42;65.06
4326;BME280;58429;49.826;10.880;2023-03-01T01:06:46;99618;;;-0.4;65.08
4326;BME280;58429;49.826;10.880;2023-03-01T01:07:47;99613;;;-0.42;65.16
4326;BME280;58429;49.826;10.880;2023-03-01T01:08:47;99614;;;-0.43;65.14
4326;BME280;58429;49.826;10.880;2023-03-01T01:09:47;99614;;;-0.4;65.13
4326;BME280;58429;49.826;10.880;2023-03-01T01:10:47;99613;;;-0.43;65.32
4326;BME280;58429;49.826;10.880;2023-03-01T01:11:47;99613;;;-0.42;65.12
4326;BME280;58429;49.826;10.880;2023-03-01T01:12:46;99609;;;-0.44;65.3
4326;BME280;58429;49.826;10.880;2023-03-01T01:13:47;99606;;;-0.44;65.29
4326;BME280;58429;49.826;10.880;2023-03-01T01:14:47;99611;;;-0.45;65.25
4326;BME280;58429;49.826;10.880;2023-03-01T01:15:47;99604;;;-0.44;65.08
4326;BME280;58429;49.826;10.880;2023-03-01T01:16:47;99604;;;-0.44;65.07
4326;BME280;58429;49.826;10.880;2023-03-01T01:17:47;99604;;;-0.45;65.26
4326;BME280;58429;49.826;10.880;2023-03-01T01:18:47;99609;;;-0.43;65.22
4326;BME280;58429;49.826;10.880;2023-03-01T01:19:47;99599;;;-0.44;65
4326;BME280;58429;49.826;10.880;2023-03-01T01:20:47;99609;;;-0.44;64.86
4326;BME280;58429;49.826;10.880;2023-03-01T01:21:47;99605;;;-0.44;64.66
4326;BME280;58429;49.826;10.880;2023-03-01T01:22:47;99601;;;-0.42;64.59
4326;BME280;58429;49.826;10.880;2023-03-01T01:23:47;99599;;;-0.5;64.62
4326;BME280;58429;49.826;10.880;2023-03-01T01:24:47;99594;;;-0.43;64.59
4326;BME280;58429;49.826;10.880;2023-03-01T01:25:47;99597;;;-0.47;64.56
4326;BME280;58429;49.826;10.880;2023-03-01T01:26:47;99592;;;-0.46;64.55
4326;BME280;58429;49.826;10.880;2023-03-01T01:27:47;99591;;;-0.46;64.52
4326;BME280;58429;49.826;10.880;2023-03-01T01:28:47;99594;;;-0.46;64.51
4326;BME280;58429;49.826;10.880;2023-03-01T01:29:47;99588;;;-0.45;64.65
4326;BME280;58429;49.826;10.880;2023-03-01T01:30:47;99587;;;-0.46;64.72
4326;BME280;58429;49.826;10.880;2023-03-01T01:31:47;99589;;;-0.47;64.61
4326;BME280;58429;49.826;10.880;2023-03-01T01:32:47;99588;;;-0.46;64.36
4326;BME280;58429;49.826;10.880;2023-03-01T01:33:47;99589;;;-0.49;64.24
4326;BME280;58429;49.826;10.880;2023-03-01T01:34:47;99593;;;-0.51;64.35
4326;BME280;58429;49.826;10.880;2023-03-01T01:35:47;99589;;;-0.53;64.37
4326;BME280;58429;49.826;10.880;2023-03-01T01:36:47;99587;;;-0.52;64.38
4326;BME280;58429;49.826;10.880;2023-03-01T01:37:47;99585;;;-0.53;64.45
4326;BME280;58429;49.826;10.880;2023-03-01T01:38:47;99591;;;-0.52;64.44
4326;BME280;58429;49.826;10.880;2023-03-01T01:39:47;99584;;;-0.53;64.53
4326;BME280;58429;49.826;10.880;2023-03-01T01:40:47;99589;;;-0.5;64.54
4326;BME280;58429;49.826;10.880;2023-03-01T01:41:47;99584;;;-0.48;64.47
4326;BME280;58429;49.826;10.880;2023-03-01T01:42:47;99583;;;-0.49;64.4
4326;BME280;58429;49.826;10.880;2023-03-01T01:43:48;99588;;;-0.5;64.29
4326;BME280;58429;49.826;10.880;2023-03-01T01:44:47;99588;;;-0.47;64.38
4326;BME280;58429;49.826;10.880;2023-03-01T01:45:47;99581;;;-0.46;64.51
4326;BME280;58429;49.826;10.880;2023-03-01T01:46:48;99583;;;-0.45;64.65
4326;BME280;58429;49.826;10.880;2023-03-01T01:47:47;99584;;;-0.48;64.58
4326;BME280;58429;49.826;10.880;2023-03-01T01:48:48;99582;;;-0.48;64.61
4326;BME280;58429;49.826;10.880;2023-03-01T01:49:48;99579;;;-0.48;64.8
4326;BME280;58429;49.826;10.880;2023-03-01T01:50:48;99578;;;-0.44;64.84
4326;BME280;58429;49.826;10.880;2023-03-01T01:51:47;99570;;;-0.47;64.81
4326;BME280;58429;49.826;10.880;2023-03-01T01:52:47;99570;;;-0.46;64.82
4326;BME280;58429;49.826;10.880;2023-03-01T01:53:47;99569;;;-0.45;65.07
4326;BME280;58429;49.826;10.880;2023-03-01T01:54:48;99574;;;-0.46;64.9
4326;BME280;58429;49.826;10.880;2023-03-01T01:55:47;99573;;;-0.48;64.78
4326;BME280;58429;49.826;10.880;2023-03-01T01:56:47;99567;;;-0.45;64.69
4326;BME280;58429;49.826;10.880;2023-03-01T01:57:48;99565;;;-0.48;64.61
4326;BME280;58429;49.826;10.880;2023-03-01T01:58:47;99565;;;-0.48;64.58
4326;BME280;58429;49.826;10.880;2023-03-01T01:59:48;99563;;;-0.48;64.66
4326;BME280;58429;49.826;10.880;2023-03-01T02:00:47;99561;;;-0.51;64.98
4326;BME280;58429;49.826;10.880;2023-03-01T02:01:47;99554;;;-0.56;64.93
4326;BME280;58429;49.826;10.880;2023-03-01T02:02:48;99556;;;-0.52;65.14
4326;BME280;58429;49.826;10.880;2023-03-01T02:03:47;99561;;;-0.54;65.1
4326;BME280;58429;49.826;10.880;2023-03-01T02:04:47;99558;;;-0.58;65.26
4326;BME280;58429;49.826;10.880;2023-03-01T02:05:47;99547;;;-0.59;65.35
4326;BME280;58429;49.826;10.880;2023-03-01T02:06:48;99551;;;-0.58;65.36
4326;BME280;58429;49.826;10.880;2023-03-01T02:07:47;99555;;;-0.61;65.37
4326;BME280;58429;49.826;10.880;2023-03-01T02:08:47;99555;;;-0.6;65.45
4326;BME280;58429;49.826;10.880;2023-03-01T02:09:47;99552;;;-0.63;65.38
4326;BME280;58429;49.826;10.880;2023-03-01T02:10:48;99555;;;-0.6;65.26
4326;BME280;58429;49.826;10.880;2023-03-01T02:11:47;99556;;;-0.62;65.15
4326;BME280;58429;49.826;10.880;2023-03-01T02:12:47;99554;;;-0.61;65.2
4326;BME280;58429;49.826;10.880;2023-03-01T02:13:47;99554;;;-0.64;65.16
4326;BME280;58429;49.826;10.880;2023-03-01T02:14:47;99550;;;-0.63;65.35
4326;BME280;58429;49.826;10.880;2023-03-01T02:15:47;99555;;;-0.62;65.41
4326;BME280;58429;49.826;10.880;2023-03-01T02:16:47;99552;;;-0.6;65.43
4326;BME280;58429;49.826;10.880;2023-03-01T02:17:47;99551;;;-0.6;65.43
4326;BME280;58429;49.826;10.880;2023-03-01T02:18:47;99551;;;-0.6;65.58
4326;BME280;58429;49.826;10.880;2023-03-01T02:19:50;99545;;;-0.58;65.48
4326;BME280;58429;49.826;10.880;2023-03-01T02:20:49;99542;;;-0.63;65.46
4326;BME280;58429;49.826;10.880;2023-03-01T02:21:49;99552;;;-0.61;65.44
4326;BME280;58429;49.826;10.880;2023-03-01T02:22:47;99546;;;-0.64;65.65
4326;BME280;58429;49.826;10.880;2023-03-01T02:23:47;99554;;;-0.62;65.53
4326;BME280;58429;49.826;10.880;2023-03-01T02:24:50;99545;;;-0.64;65.64
4326;BME280;58429;49.826;10.880;2023-03-01T02:25:49;99548;;;-0.62;65.76
4326;BME280;58429;49.826;10.880;2023-03-01T02:26:48;99549;;;-0.65;66
4326;BME280;58429;49.826;10.880;2023-03-01T02:27:49;99546;;;-0.66;65.91
4326;BME280;58429;49.826;10.880;2023-03-01T02:28:47;99541;;;-0.63;66
4326;BME280;58429;49.826;10.880;2023-03-01T02:29:47;99545;;;-0.65;66.01
4326;BME280;58429;49.826;10.880;2023-03-01T02:30:48;99545;;;-0.64;66.03
4326;BME280;58429;49.826;10.880;2023-03-01T02:31:47;99541;;;-0.65;66.5
4326;BME280;58429;49.826;10.880;2023-03-01T02:32:47;99537;;;-0.68;66.32
4326;BME280;58429;49.826;10.880;2023-03-01T02:33:47;99540;;;-0.68;66.28
4326;BME280;58429;49.826;10.880;2023-03-01T02:34:47;99540;;;-0.66;66.36
4326;BME280;58429;49.826;10.880;2023-03-01T02:35:47;99541;;;-0.67;66.32
4326;BME280;58429;49.826;10.880;2023-03-01T02:36:47;99539;;;-0.7;66.36
4326;BME280;58429;49.826;10.880;2023-03-01T02:37:47;99543;;;-0.71;66.41
4326;BME280;58429;49.826;10.880;2023-03-01T02:38:47;99540;;;-0.72;66.28
4326;BME280;58429;49.826;10.880;2023-03-01T02:39:48;99537;;;-0.72;66.36
4326;BME280;58429;49.826;10.880;2023-03-01T02:40:47;99539;;;-0.73;66.17
4326;BME280;58429;49.826;10.880;2023-03-01T02:41:48;99536;;;-0.75;66.34
4326;BME280;58429;49.826;10.880;2023-03-01T02:42:49;99540;;;-0.77;66.83
4326;BME280;58429;49.826;10.880;2023-03-01T02:43:47;99538;;;-0.8;66.69
4326;BME280;58429;49.826;10.880;2023-03-01T02:44:48;99532;;;-0.8;67.29
4326;BME280;58429;49.826;10.880;2023-03-01T02:45:47;99538;;;-0.84;67.28
4326;BME280;58429;49.826;10.880;2023-03-01T02:46:47;99534;;;-0.83;67.21
4326;BME280;58429;49.826;10.880;2023-03-01T02:47:47;99531;;;-0.84;67.22
4326;BME280;58429;49.826;10.880;2023-03-01T02:48:47;99534;;;-0.83;67.4
4326;BME280;58429;49.826;10.880;2023-03-01T02:49:47;99525;;;-0.85;67.35
4326;BME280;58429;49.826;10.880;2023-03-01T02:50:52;99531;;;-0.85;67.33
4326;BME280;58429;49.826;10.880;2023-03-01T02:51:50;99530;;;-0.87;67.38
4326;BME280;58429;49.826;10.880;2023-03-01T02:52:47;99531;;;-0.86;67.34
4326;BME280;58429;49.826;10.880;2023-03-01T02:53:48;99531;;;-0.88;67.28
4326;BME280;58429;49.826;10.880;2023-03-01T02:54:48;99532;;;-0.87;67.37
4326;BME280;58429;49.826;10.880;2023-03-01T02:55:47;99529;;;-0.85;67.34
4326;BME280;58429;49.826;10.880;2023-03-01T02:56:47;99529;;;-0.87;67.28
4326;BME280;58429;49.826;10.880;2023-03-01T02:57:47;99518;;;-0.89;67.03
4326;BME280;58429;49.826;10.880;2023-03-01T02:58:47;99518;;;-0.93;67.03
4326;BME280;58429;49.826;10.880;2023-03-01T02:59:47;99521;;;-0.92;67.07
4326;BME280;58429;49.826;10.880;2023-03-01T03:00:47;99520;;;-0.93;66.94
4326;BME280;58429;49.826;10.880;2023-03-01T03:01:47;99520;;;-0.92;67.07
4326;BME280;58429;49.826;10.880;2023-03-01T03:02:47;99511;;;-0.95;66.96
4326;BME280;58429;49.826;10.880;2023-03-01T03:03:47;99513;;;-0.97;66.99
4326;BME280;58429;49.826;10.880;2023-03-01T03:04:47;99511;;;-0.99;67.01
4326;BME280;58429;49.826;10.880;2023-03-01T03:05:47;99513;;;-0.94;66.91
4326;BME280;58429;49.826;10.880;2023-03-01T03:06:48;99503;;;-0.99;67.01
4326;BME280;58429;49.826;10.880;2023-03-01T03:07:47;99503;;;-0.99;67
4326;BME280;58429;49.826;10.880;2023-03-01T03:08:47;99502;;;-1;66.96
4326;BME280;58429;49.826;10.880;2023-03-01T03:09:47;99502;;;-0.96;66.9
4326;BME280;58429;49.826;10.880;2023-03-01T03:10:47;99501;;;-0.99;66.66
4326;BME280;58429;49.826;10.880;2023-03-01T03:11:47;99505;;;-0.97;66.58
4326;BME280;58429;49.826;10.880;2023-03-01T03:12:49;99511;;;-0.97;66.47
4326;BME280;58429;49.826;10.880;2023-03-01T03:13:47;99505;;;-0.99;66.47
4326;BME280;58429;49.826;10.880;2023-03-01T03:14:47;99499;;;-1.04;66.48
4326;BME280;58429;49.826;10.880;2023-03-01T03:15:47;99501;;;-1.05;66.44
4326;BME280;58429;49.826;10.880;2023-03-01T03:16:48;99500;;;-1.04;65.9
4326;BME280;58429;49.826;10.880;2023-03-01T03:17:47;99499;;;-1.11;66.34
4326;BME280;58429;49.826;10.880;2023-03-01T03:18:47;99499;;;-1.11;66.47
4326;BME280;58429;49.826;10.880;2023-03-01T03:19:47;99502;;;-1.09;66.56
4326;BME280;58429;49.826;10.880;2023-03-01T03:20:47;99504;;;-1.08;66.56
4326;BME280;58429;49.826;10.880;2023-03-01T03:21:47;99498;;;-1.11;66.49
4326;BME280;58429;49.826;10.880;2023-03-01T03:22:48;99502;;;-1.06;66.38
4326;BME280;58429;49.826;10.880;2023-03-01T03:23:47;99500;;;-1.07;66.32
4326;BME280;58429;49.826;10.880;2023-03-01T03:24:47;99501;;;-1.08;66.28
4326;BME280;58429;49.826;10.880;2023-03-01T03:25:47;99505;;;-1.07;66.25
4326;BME280;58429;49.826;10.880;2023-03-01T03:26:47;99502;;;-1.11;66.2
4326;BME280;58429;49.826;10.880;2023-03-01T03:27:48;99496;;;-1.09;66.22
4326;BME280;58429;49.826;10.880;2023-03-01T03:28:47;99496;;;-1.06;66.31
4326;BME280;58429;49.826;10.880;2023-03-01T03:29:47;99496;;;-1.1;66.25
4326;BME280;58429;49.826;10.880;2023-03-01T03:30:47;99503;;;-1.12;66.07
4326;BME280;58429;49.826;10.880;2023-03-01T03:31:47;99501;;;-1.1;66.09
4326;BME280;58429;49.826;10.880;2023-03-01T03:32:47;99498;;;-1.11;66.07
4326;BME280;58429;49.826;10.880;2023-03-01T03:33:47;99498;;;-1.12;66.24
4326;BME280;58429;49.826;10.880;2023-03-01T03:34:47;99503;;;-1.12;66.27
4326;BME280;58429;49.826;10.880;2023-03-01T03:35:48;99498;;;-1.1;66.19
4326;BME280;58429;49.826;10.880;2023-03-01T03:36:47;99496;;;-1.12;66.2
4326;BME280;58429;49.826;10.880;2023-03-01T03:37:47;99504;;;-1.12;66.2
4326;BME280;58429;49.826;10.880;2023-03-01T03:38:47;99505;;;-1.07;66.27
4326;BME280;58429;49.826;10.880;2023-03-01T03:39:47;99504;;;-1.11;66.23
4326;BME280;58429;49.826;10.880;2023-03-01T03:40:48;99506;;;-1.11;66.25
4326;BME280;58429;49.826;10.880;2023-03-01T03:41:47;99498;;;-1.09;66.12
4326;BME280;58429;49.826;10.880;2023-03-01T03:42:47;99504;;;-1.1;66.09
4326;BME280;58429;49.826;10.880;2023-03-01T03:43:47;99507;;;-1.11;66.2
4326;BME280;58429;49.826;10.880;2023-03-01T03:44:47;99496;;;-1.1;66.24
4326;BME280;58429;49.826;10.880;2023-03-01T03:45:48;99495;;;-1.14;66.24
4326;BME280;58429;49.826;10.880;2023-03-01T03:46:47;99493;;;-1.1;66.19
4326;BME280;58429;49.826;10.880;2023-03-01T03:47:47;99493;;;-1.08;66.35
4326;BME280;58429;49.826;10.880;2023-03-01T03:48:47;99497;;;-1.1;66.32
4326;BME280;58429;49.826;10.880;2023-03-01T03:49:47;99495;;;-1.11;66.36
4326;BME280;58429;49.826;10.880;2023-03-01T03:50:47;99494;;;-1.08;66.44
4326;BME280;58429;49.826;10.880;2023-03-01T03:51:47;99496;;;-1.09;66.53
4326;BME280;58429;49.826;10.880;2023-03-01T03:52:47;99494;;;-1.09;66.34
4326;BME280;58429;49.826;10.880;2023-03-01T03:53:47;99493;;;-1.08;66.22
4326;BME280;58429;49.826;10.880;2023-03-01T03:54:47;99500;;;-1.09;66.15
4326;BME280;58429;49.826;10.880;2023-03-01T03:55:47;99501;;;-1.1;66.04
4326;BME280;58429;49.826;10.880;2023-03-01T03:56:47;99495;;;-1.11;66.26
4326;BME280;58429;49.826;10.880;2023-03-01T03:57:47;99498;;;-1.14;66.34
4326;BME280;58429;49.826;10.880;2023-03-01T03:58:47;99499;;;-1.17;66.49
4326;BME280;58429;49.826;10.880;2023-03-01T03:59:47;99504;;;-1.16;66.86
4326;BME280;58429;49.826;10.880;2023-03-01T04:00:48;99498;;;-1.18;66.72
4326;BME280;58429;49.826;10.880;2023-03-01T04:01:47;99494;;;-1.17;66.55
4326;BME280;58429;49.826;10.880;2023-03-01T04:02:47;99497;;;-1.18;66.67
4326;BME280;58429;49.826;10.880;2023-03-01T04:03:47;99496;;;-1.21;66.81
4326;BME280;58429;49.826;10.880;2023-03-01T04:04:47;99497;;;-1.23;66.79
4326;BME280;58429;49.826;10.880;2023-03-01T04:05:47;99498;;;-1.21;66.79
4326;BME280;58429;49.826;10.880;2023-03-01T04:06:47;99496;;;-1.21;66.82
4326;BME280;58429;49.826;10.880;2023-03-01T04:07:47;99500;;;-1.21;66.84
4326;BME280;58429;49.826;10.880;2023-03-01T04:08:47;99499;;;-1.2;66.79
4326;BME280;58429;49.826;10.880;2023-03-01T04:09:47;99494;;;-1.2;66.8
4326;BME280;58429;49.826;10.880;2023-03-01T04:10:48;99493;;;-1.21;66.75
4326;BME280;58429;49.826;10.880;2023-03-01T04:11:47;99500;;;-1.18;66.74
4326;BME280;58429;49.826;10.880;2023-03-01T04:12:47;99494;;;-1.16;66.71
4326;BME280;58429;49.826;10.880;2023-03-01T04:13:47;99498;;;-1.17;66.69
4326;BME280;58429;49.826;10.880;2023-03-01T04:14:47;99498;;;-1.17;66.63
4326;BME280;58429;49.826;10.880;2023-03-01T04:15:48;99493;;;-1.18;66.66
4326;BME280;58429;49.826;10.880;2023-03-01T04:16:47;99500;;;-1.17;66.52
4326;BME280;58429;49.826;10.880;2023-03-01T04:17:47;99501;;;-1.17;66.4
4326;BME280;58429;49.826;10.880;2023-03-01T04:18:47;99497;;;-1.2;66.35
4326;BME280;58429;49.826;10.880;2023-03-01T04:19:47;99498;;;-1.19;66.47
4326;BME280;58429;49.826;10.880;2023-03-01T04:20:47;99500;;;-1.23;66.65
4326;BME280;58429;49.826;10.880;2023-03-01T04:21:47;99499;;;-1.23;66.65
4326;BME280;58429;49.826;10.880;2023-03-01T04:22:47;99503;;;-1.26;66.73
4326;BME280;58429;49.826;10.880;2023-03-01T04:23:47;99495;;;-1.26;66.58
4326;BME280;58429;49.826;10.880;2023-03-01T04:24:47;99493;;;-1.27;66.57
4326;BME280;58429;49.826;10.880;2023-03-01T04:25:48;99496;;;-1.26;66.65
4326;BME280;58429;49.826;10.880;2023-03-01T04:26:47;99492;;;-1.27;66.66
4326;BME280;58429;49.826;10.880;2023-03-01T04:27:47;99494;;;-1.25;66.75
4326;BME280;58429;49.826;10.880;2023-03-01T04:28:47;99494;;;-1.28;66.71
4326;BME280;58429;49.826;10.880;2023-03-01T04:29:47;99494;;;-1.26;66.8
4326;BME280;58429;49.826;10.880;2023-03-01T04:30:47;99496;;;-1.27;66.88
4326;BME280;58429;49.826;10.880;2023-03-01T04:31:47;99492;;;-1.24;66.84
4326;BME280;58429;49.826;10.880;2023-03-01T04:32:47;99497;;;-1.27;66.73
4326;BME280;58429;49.826;10.880;2023-03-01T04:33:48;99492;;;-1.28;66.74
4326;BME280;58429;49.826;10.880;2023-03-01T04:34:47;99494;;;-1.27;66.77
4326;BME280;58429;49.826;10.880;2023-03-01T04:35:47;99487;;;-1.3;66.69
4326;BME280;58429;49.826;10.880;2023-03-01T04:36:47;99491;;;-1.3;66.73
4326;BME280;58429;49.826;10.880;2023-03-01T04:37:47;99487;;;-1.33;66.96
4326;BME280;58429;49.826;10.880;2023-03-01T04:38:47;99489;;;-1.32;67.04
4326;BME280;58429;49.826;10.880;2023-03-01T04:39:47;99490;;;-1.36;67.16
4326;BME280;58429;49.826;10.880;2023-03-01T04:40:47;99491;;;-1.36;67.35
4326;BME280;58429;49.826;10.880;2023-03-01T04:41:47;99489;;;-1.38;67.3
4326;BME280;58429;49.826;10.880;2023-03-01T04:42:47;99494;;;-1.36;67.3
4326;BME280;58429;49.826;10.880;2023-03-01T04:43:47;99493;;;-1.35;67.37
4326;BME280;58429;49.826;10.880;2023-03-01T04:44:47;99495;;;-1.38;67.51
4326;BME280;58429;49.826;10.880;2023-03-01T04:45:47;99493;;;-1.42;67.41
4326;BME280;58429;49.826;10.880;2023-03-01T04:46:48;99491;;;-1.39;67.52
4326;BME280;58429;49.826;10.880;2023-03-01T04:47:47;99493;;;-1.41;67.5
4326;BME280;58429;49.826;10.880;2023-03-01T04:48:47;99489;;;-1.41;67.55
4326;BME280;58429;49.826;10.880;2023-03-01T04:49:47;99493;;;-1.36;67.61
4326;BME280;58429;49.826;10.880;2023-03-01T04:50:47;99493;;;-1.4;67.72
4326;BME280;58429;49.826;10.880;2023-03-01T04:51:47;99494;;;-1.37;67.83
4326;BME280;58429;49.826;10.880;2023-03-01T04:52:47;99494;;;-1.39;68.07
4326;BME280;58429;49.826;10.880;2023-03-01T04:53:47;99503;;;-1.41;67.92
4326;BME280;58429;49.826;10.880;2023-03-01T04:54:47;99491;;;-1.39;67.95
4326;BME280;58429;49.826;10.880;2023-03-01T04:55:47;99503;;;-1.4;67.87
4326;BME280;58429;49.826;10.880;2023-03-01T04:56:47;99499;;;-1.39;68
4326;BME280;58429;49.826;10.880;2023-03-01T04:57:47;99501;;;-1.39;67.88
4326;BME280;58429;49.826;10.880;2023-03-01T04:58:47;99501;;;-1.38;67.87
4326;BME280;58429;49.826;10.880;2023-03-01T04:59:47;99493;;;-1.36;67.92
4326;BME280;58429;49.826;10.880;2023-03-01T05:00:47;99498;;;-1.38;68.02
4326;BME280;58429;49.826;10.880;2023-03-01T05:01:47;99499;;;-1.41;68.14
4326;BME280;58429;49.826;10.880;2023-03-01T05:02:48;99497;;;-1.41;68.32
4326;BME280;58429;49.826;10.880;2023-03-01T05:03:48;99507;;;-1.43;68.33
4326;BME280;58429;49.826;10.880;2023-03-01T05:04:47;99501;;;-1.43;68.27
4326;BME280;58429;49.826;10.880;2023-03-01T05:05:48;99492;;;-1.44;68.42
4326;BME280;58429;49.826;10.880;2023-03-01T05:06:47;99500;;;-1.43;68.28
4326;BME280;58429;49.826;10.880;2023-03-01T05:07:47;99497;;;-1.41;68.09
4326;BME280;58429;49.826;10.880;2023-03-01T05:08:47;99500;;;-1.41;68.15
4326;BME280;58429;49.826;10.880;2023-03-01T05:09:47;99497;;;-1.4;68.1
4326;BME280;58429;49.826;10.880;2023-03-01T05:10:48;99494;;;-1.41;68.12
4326;BME280;58429;49.826;10.880;2023-03-01T05:11:47;99496;;;-1.42;68.16
4326;BME280;58429;49.826;10.880;2023-03-01T05:12:47;99490;;;-1.41;68.04
4326;BME280;58429;49.826;10.880;2023-03-01T05:13:47;99482;;;-1.4;68.05
4326;BME280;58429;49.826;10.880;2023-03-01T05:14:47;99478;;;-1.39;68.07
4326;BME280;58429;49.826;10.880;2023-03-01T05:15:48;99488;;;-1.38;68.08
4326;BME280;58429;49.826;10.880;2023-03-01T05:16:47;99481;;;-1.4;68.06
4326;BME280;58429;49.826;10.880;2023-03-01T05:17:48;99484;;;-1.4;67.92
4326;BME280;58429;49.826;10.880;2023-03-01T05:18:47;99481;;;-1.42;67.83
4326;BME280;58429;49.826;10.880;2023-03-01T05:19:47;99478;;;-1.39;67.75
4326;BME280;58429;49.826;10.880;2023-03-01T05:20:47;99480;;;-1.42;67.78
4326;BME280;58429;49.826;10.880;2023-03-01T05:21:48;99476;;;-1.39;67.7
4326;BME280;58429;49.826;10.880;2023-03-01T05:22:47;99482;;;-1.44;67.78
4326;BME280;58429;49.826;10.880;2023-03-01T05:23:47;99482;;;-1.42;67.8
4326;BME280;58429;49.826;10.880;2023-03-01T05:24:47;99483;;;-1.42;67.87
4326;BME280;58429;49.826;10.880;2023-03-01T05:25:47;99483;;;-1.42;67.94
4326;BME280;58429;49.826;10.880;2023-03-01T05:26:47;99482;;;-1.44;67.92
4326;BME280;58429;49.826;10.880;2023-03-01T05:27:47;99481;;;-1.43;67.86
4326;BME280;58429;49.826;10.880;2023-03-01T05:28:47;99482;;;-1.42;68.08
4326;BME280;58429;49.826;10.880;2023-03-01T05:29:47;99483;;;-1.48;68
4326;BME280;58429;49.826;10.880;2023-03-01T05:30:47;99486;;;-1.51;68.14
4326;BME280;58429;49.826;10.880;2023-03-01T05:31:47;99482;;;-1.54;68.13
4326;BME280;58429;49.826;10.880;2023-03-01T05:32:48;99480;;;-1.54;68.24